sensor_id;sensor_type;location;lat;lon;timestamp;P1;durP1;ratioP1;P2;durP2;ratioP2
12792;SDS011;6460;42.684;23.260;2022-10-16T00:01:07;11.47;;;8.63;;
12792;SDS011;6460;42.684;23.260;2022-10-16T00:03:36;11.37;;;8.43;;
12792;SDS011;6460;42.684;23.260;2022-10-16T00:06:04;13.63;;;9.03;;
12792;SDS011;6460;42.684;23.260;2022-10-16T00:08:32;10.10;;;8.70;;
12792;SDS011;6460;42.684;23.260;2022-10-16T00:11:04;13.90;;;8.93;;
12792;SDS011;6460;42.684;23.260;2022-10-16T00:13:33;12.67;;;8.63;;
12792;SDS011;6460;42.684;23.260;2022-10-16T00:16:01;11.63;;;9.23;;
12792;SDS011;6460;42.684;23.260;2022-10-16T00:18:28;11.47;;;8.80;;
12792;SDS011;6460;42.684;23.260;2022-10-16T00:21:01;12.40;;;8.07;;
12792;SDS011;6460;42.684;23.260;2022-10-16T00:23:29;10.17;;;8.53;;
12792;SDS011;6460;42.684;23.260;2022-10-16T00:25:56;11.33;;;9.17;;
12792;SDS011;6460;42.684;23.260;2022-10-16T00:28:26;12.03;;;8.93;;
12792;SDS011;6460;42.684;23.260;2022-10-16T00:30:54;12.80;;;8.87;;
12792;SDS011;6460;42.684;23.260;2022-10-16T00:33:21;11.07;;;8.80;;
12792;SDS011;6460;42.684;23.260;2022-10-16T00:35:49;8.97;;;7.80;;
12792;SDS011;6460;42.684;23.260;2022-10-16T00:38:16;9.93;;;7.77;;
12792;SDS011;6460;42.684;23.260;2022-10-16T00:40:44;9.73;;;8.17;;
12792;SDS011;6460;42.684;23.260;2022-10-16T00:43:31;8.80;;;7.90;;
12792;SDS011;6460;42.684;23.260;2022-10-16T00:46:03;10.90;;;8.40;;
12792;SDS011;6460;42.684;23.260;2022-10-16T00:48:32;10.40;;;8.60;;
12792;SDS011;6460;42.684;23.260;2022-10-16T00:50:59;9.87;;;8.20;;
12792;SDS011;6460;42.684;23.260;2022-10-16T00:53:27;9.90;;;7.93;;
12792;SDS011;6460;42.684;23.260;2022-10-16T00:55:55;12.43;;;8.17;;
12792;SDS011;6460;42.684;23.260;2022-10-16T00:58:22;10.50;;;7.80;;
12792;SDS011;6460;42.684;23.260;2022-10-16T01:00:51;12.20;;;8.37;;
12792;SDS011;6460;42.684;23.260;2022-10-16T01:03:22;12.03;;;8.23;;
12792;SDS011;6460;42.684;23.260;2022-10-16T01:05:54;11.47;;;8.00;;
12792;SDS011;6460;42.684;23.260;2022-10-16T01:08:34;13.23;;;8.80;;
12792;SDS011;6460;42.684;23.260;2022-10-16T01:11:08;9.47;;;8.03;;
12792;SDS011;6460;42.684;23.260;2022-10-16T01:13:41;10.80;;;8.83;;
12792;SDS011;6460;42.684;23.260;2022-10-16T01:16:15;9.67;;;8.63;;
12792;SDS011;6460;42.684;23.260;2022-10-16T01:18:49;10.70;;;8.77;;
12792;SDS011;6460;42.684;23.260;2022-10-16T01:21:21;9.23;;;7.63;;
12792;SDS011;6460;42.684;23.260;2022-10-16T01:23:56;10.03;;;7.60;;
12792;SDS011;6460;42.684;23.260;2022-10-16T01:26:36;10.77;;;8.20;;
12792;SDS011;6460;42.684;23.260;2022-10-16T01:29:14;8.60;;;7.60;;
12792;SDS011;6460;42.684;23.260;2022-10-16T01:31:47;9.93;;;8.23;;
12792;SDS011;6460;42.684;23.260;2022-10-16T01:34:18;8.70;;;7.80;;
12792;SDS011;6460;42.684;23.260;2022-10-16T01:36:50;10.10;;;7.23;;
12792;SDS011;6460;42.684;23.260;2022-10-16T01:39:20;11.10;;;7.87;;
12792;SDS011;6460;42.684;23.260;2022-10-16T01:41:53;10.47;;;7.63;;
12792;SDS011;6460;42.684;23.260;2022-10-16T01:44:27;9.53;;;7.13;;
12792;SDS011;6460;42.684;23.260;2022-10-16T01:46:57;8.97;;;7.37;;
12792;SDS011;6460;42.684;23.260;2022-10-16T01:49:27;7.83;;;7.03;;
12792;SDS011;6460;42.684;23.260;2022-10-16T01:51:58;10.47;;;7.50;;
12792;SDS011;6460;42.684;23.260;2022-10-16T01:54:29;9.57;;;7.40;;
12792;SDS011;6460;42.684;23.260;2022-10-16T01:56:59;11.27;;;7.70;;
12792;SDS011;6460;42.684;23.260;2022-10-16T01:59:30;9.10;;;7.40;;
12792;SDS011;6460;42.684;23.260;2022-10-16T02:01:59;9.83;;;7.57;;
12792;SDS011;6460;42.684;23.260;2022-10-16T02:04:33;9.43;;;7.77;;
12792;SDS011;6460;42.684;23.260;2022-10-16T02:07:04;9.83;;;7.90;;
12792;SDS011;6460;42.684;23.260;2022-10-16T02:09:33;9.63;;;7.90;;
12792;SDS011;6460;42.684;23.260;2022-10-16T02:12:03;9.70;;;7.67;;
12792;SDS011;6460;42.684;23.260;2022-10-16T02:14:38;10.13;;;7.50;;
12792;SDS011;6460;42.684;23.260;2022-10-16T02:17:10;11.50;;;7.40;;
12792;SDS011;6460;42.684;23.260;2022-10-16T02:19:38;9.00;;;7.23;;
12792;SDS011;6460;42.684;23.260;2022-10-16T02:22:06;8.97;;;7.53;;
12792;SDS011;6460;42.684;23.260;2022-10-16T02:24:43;9.13;;;7.93;;
12792;SDS011;6460;42.684;23.260;2022-10-16T02:27:18;9.93;;;8.87;;
12792;SDS011;6460;42.684;23.260;2022-10-16T02:29:52;13.13;;;9.53;;
12792;SDS011;6460;42.684;23.260;2022-10-16T02:32:24;12.47;;;9.60;;
12792;SDS011;6460;42.684;23.260;2022-10-16T02:34:56;11.43;;;8.73;;
12792;SDS011;6460;42.684;23.260;2022-10-16T02:37:26;10.07;;;9.07;;
12792;SDS011;6460;42.684;23.260;2022-10-16T02:39:55;11.37;;;8.83;;
12792;SDS011;6460;42.684;23.260;2022-10-16T02:42:27;9.80;;;8.33;;
12792;SDS011;6460;42.684;23.260;2022-10-16T02:44:57;10.43;;;9.17;;
12792;SDS011;6460;42.684;23.260;2022-10-16T02:47:24;12.30;;;8.93;;
12792;SDS011;6460;42.684;23.260;2022-10-16T02:49:52;10.97;;;8.80;;
12792;SDS011;6460;42.684;23.260;2022-10-16T02:52:19;11.70;;;9.00;;
12792;SDS011;6460;42.684;23.260;2022-10-16T02:54:47;11.37;;;9.63;;
12792;SDS011;6460;42.684;23.260;2022-10-16T02:57:14;11.83;;;10.03;;
12792;SDS011;6460;42.684;23.260;2022-10-16T02:59:41;11.50;;;9.30;;
12792;SDS011;6460;42.684;23.260;2022-10-16T03:02:10;10.63;;;9.00;;
12792;SDS011;6460;42.684;23.260;2022-10-16T03:04:37;11.03;;;9.20;;
12792;SDS011;6460;42.684;23.260;2022-10-16T03:07:04;12.10;;;9.97;;
12792;SDS011;6460;42.684;23.260;2022-10-16T03:09:32;10.97;;;9.00;;
12792;SDS011;6460;42.684;23.260;2022-10-16T03:12:00;10.70;;;9.60;;
12792;SDS011;6460;42.684;23.260;2022-10-16T03:14:27;12.17;;;8.70;;
12792;SDS011;6460;42.684;23.260;2022-10-16T03:16:54;12.93;;;8.87;;
12792;SDS011;6460;42.684;23.260;2022-10-16T03:19:23;11.00;;;8.93;;
12792;SDS011;6460;42.684;23.260;2022-10-16T03:21:50;11.50;;;9.70;;
12792;SDS011;6460;42.684;23.260;2022-10-16T03:24:17;10.40;;;8.27;;
12792;SDS011;6460;42.684;23.260;2022-10-16T03:26:44;10.20;;;8.60;;
12792;SDS011;6460;42.684;23.260;2022-10-16T03:29:11;11.63;;;9.77;;
12792;SDS011;6460;42.684;23.260;2022-10-16T03:31:39;12.30;;;11.00;;
12792;SDS011;6460;42.684;23.260;2022-10-16T03:34:06;19.23;;;16.10;;
12792;SDS011;6460;42.684;23.260;2022-10-16T03:36:35;23.27;;;17.27;;
12792;SDS011;6460;42.684;23.260;2022-10-16T03:39:02;16.13;;;14.43;;
12792;SDS011;6460;42.684;23.260;2022-10-16T03:41:30;18.27;;;13.63;;
12792;SDS011;6460;42.684;23.260;2022-10-16T03:43:58;13.50;;;11.03;;
12792;SDS011;6460;42.684;23.260;2022-10-16T03:46:25;14.30;;;11.57;;
12792;SDS011;6460;42.684;23.260;2022-10-16T03:48:53;13.70;;;10.97;;
12792;SDS011;6460;42.684;23.260;2022-10-16T03:51:20;12.43;;;11.23;;
12792;SDS011;6460;42.684;23.260;2022-10-16T03:53:49;12.67;;;10.67;;
12792;SDS011;6460;42.684;23.260;2022-10-16T03:56:16;13.70;;;10.60;;
12792;SDS011;6460;42.684;23.260;2022-10-16T03:58:44;11.97;;;9.40;;
12792;SDS011;6460;42.684;23.260;2022-10-16T04:01:11;12.70;;;10.30;;
12792;SDS011;6460;42.684;23.260;2022-10-16T04:03:38;11.33;;;9.53;;
12792;SDS011;6460;42.684;23.260;2022-10-16T04:06:05;12.60;;;9.77;;
12792;SDS011;6460;42.684;23.260;2022-10-16T04:08:32;13.77;;;11.23;;
12792;SDS011;6460;42.684;23.260;2022-10-16T04:11:03;13.23;;;10.10;;
12792;SDS011;6460;42.684;23.260;2022-10-16T04:13:30;12.10;;;10.17;;
12792;SDS011;6460;42.684;23.260;2022-10-16T04:15:58;12.37;;;9.70;;
12792;SDS011;6460;42.684;23.260;2022-10-16T04:18:25;14.17;;;10.17;;
12792;SDS011;6460;42.684;23.260;2022-10-16T04:29:16;14.93;;;10.17;;
12792;SDS011;6460;42.684;23.260;2022-10-16T04:31:43;13.03;;;9.27;;
12792;SDS011;6460;42.684;23.260;2022-10-16T04:34:10;11.97;;;9.70;;
12792;SDS011;6460;42.684;23.260;2022-10-16T04:36:36;13.40;;;9.73;;
12792;SDS011;6460;42.684;23.260;2022-10-16T04:39:03;11.97;;;9.07;;
12792;SDS011;6460;42.684;23.260;2022-10-16T04:41:30;11.47;;;10.00;;
12792;SDS011;6460;42.684;23.260;2022-10-16T04:43:58;13.13;;;10.17;;
12792;SDS011;6460;42.684;23.260;2022-10-16T04:46:25;13.20;;;9.70;;
12792;SDS011;6460;42.684;23.260;2022-10-16T04:48:52;12.60;;;9.03;;
12792;SDS011;6460;42.684;23.260;2022-10-16T04:51:19;12.63;;;8.60;;
12792;SDS011;6460;42.684;23.260;2022-10-16T04:53:46;11.37;;;8.97;;
12792;SDS011;6460;42.684;23.260;2022-10-16T04:56:13;11.00;;;9.20;;
12792;SDS011;6460;42.684;23.260;2022-10-16T04:58:41;11.70;;;8.80;;
12792;SDS011;6460;42.684;23.260;2022-10-16T05:01:10;15.97;;;8.73;;
12792;SDS011;6460;42.684;23.260;2022-10-16T05:03:37;13.17;;;8.70;;
12792;SDS011;6460;42.684;23.260;2022-10-16T05:06:05;13.93;;;9.10;;
12792;SDS011;6460;42.684;23.260;2022-10-16T05:08:32;13.23;;;8.63;;
12792;SDS011;6460;42.684;23.260;2022-10-16T05:10:59;12.30;;;9.03;;
12792;SDS011;6460;42.684;23.260;2022-10-16T05:13:26;13.37;;;10.40;;
12792;SDS011;6460;42.684;23.260;2022-10-16T05:15:54;13.43;;;11.40;;
12792;SDS011;6460;42.684;23.260;2022-10-16T05:18:23;14.17;;;10.37;;
12792;SDS011;6460;42.684;23.260;2022-10-16T05:20:50;13.77;;;11.20;;
12792;SDS011;6460;42.684;23.260;2022-10-16T05:23:18;16.67;;;11.13;;
12792;SDS011;6460;42.684;23.260;2022-10-16T05:25:51;14.23;;;11.23;;
12792;SDS011;6460;42.684;23.260;2022-10-16T05:28:20;13.50;;;10.57;;
12792;SDS011;6460;42.684;23.260;2022-10-16T05:30:47;16.50;;;11.40;;
12792;SDS011;6460;42.684;23.260;2022-10-16T05:33:14;13.67;;;11.10;;
12792;SDS011;6460;42.684;23.260;2022-10-16T05:35:43;13.93;;;11.47;;
12792;SDS011;6460;42.684;23.260;2022-10-16T05:38:10;12.07;;;8.53;;
12792;SDS011;6460;42.684;23.260;2022-10-16T05:40:38;16.10;;;12.33;;
12792;SDS011;6460;42.684;23.260;2022-10-16T05:43:05;17.47;;;12.20;;
12792;SDS011;6460;42.684;23.260;2022-10-16T05:45:32;17.80;;;14.50;;
12792;SDS011;6460;42.684;23.260;2022-10-16T05:48:00;15.27;;;12.63;;
12792;SDS011;6460;42.684;23.260;2022-10-16T05:50:32;15.57;;;11.93;;
12792;SDS011;6460;42.684;23.260;2022-10-16T05:53:11;16.73;;;12.57;;
12792;SDS011;6460;42.684;23.260;2022-10-16T05:55:43;13.23;;;11.83;;
12792;SDS011;6460;42.684;23.260;2022-10-16T05:58:35;31.17;;;21.07;;
12792;SDS011;6460;42.684;23.260;2022-10-16T06:01:03;45.37;;;29.80;;
12792;SDS011;6460;42.684;23.260;2022-10-16T06:03:33;42.00;;;28.17;;
12792;SDS011;6460;42.684;23.260;2022-10-16T06:06:06;36.10;;;25.93;;
12792;SDS011;6460;42.684;23.260;2022-10-16T06:08:36;37.60;;;25.27;;
12792;SDS011;6460;42.684;23.260;2022-10-16T06:11:04;34.40;;;24.23;;
12792;SDS011;6460;42.684;23.260;2022-10-16T06:13:33;42.77;;;27.60;;
12792;SDS011;6460;42.684;23.260;2022-10-16T06:16:01;44.83;;;30.13;;
12792;SDS011;6460;42.684;23.260;2022-10-16T06:18:29;34.03;;;24.50;;
12792;SDS011;6460;42.684;23.260;2022-10-16T06:20:56;29.60;;;21.37;;
12792;SDS011;6460;42.684;23.260;2022-10-16T06:23:24;25.47;;;19.20;;
12792;SDS011;6460;42.684;23.260;2022-10-16T06:25:53;25.57;;;18.87;;
12792;SDS011;6460;42.684;23.260;2022-10-16T06:28:20;28.17;;;20.17;;
12792;SDS011;6460;42.684;23.260;2022-10-16T06:30:47;29.50;;;19.07;;
12792;SDS011;6460;42.684;23.260;2022-10-16T06:33:14;25.93;;;20.17;;
12792;SDS011;6460;42.684;23.260;2022-10-16T06:35:41;23.70;;;17.13;;
12792;SDS011;6460;42.684;23.260;2022-10-16T06:38:09;20.30;;;16.43;;
12792;SDS011;6460;42.684;23.260;2022-10-16T06:40:36;19.03;;;14.77;;
12792;SDS011;6460;42.684;23.260;2022-10-16T06:43:05;19.43;;;15.27;;
12792;SDS011;6460;42.684;23.260;2022-10-16T06:45:32;16.40;;;13.27;;
12792;SDS011;6460;42.684;23.260;2022-10-16T06:47:59;16.27;;;13.63;;
12792;SDS011;6460;42.684;23.260;2022-10-16T06:50:27;16.13;;;12.90;;
12792;SDS011;6460;42.684;23.260;2022-10-16T06:52:54;15.97;;;13.33;;
12792;SDS011;6460;42.684;23.260;2022-10-16T06:55:21;17.17;;;14.00;;
12792;SDS011;6460;42.684;23.260;2022-10-16T06:57:48;17.43;;;13.97;;
12792;SDS011;6460;42.684;23.260;2022-10-16T07:00:17;16.37;;;14.27;;
12792;SDS011;6460;42.684;23.260;2022-10-16T07:02:44;15.97;;;12.47;;
12792;SDS011;6460;42.684;23.260;2022-10-16T07:05:11;15.47;;;12.07;;
12792;SDS011;6460;42.684;23.260;2022-10-16T07:07:38;18.37;;;13.90;;
12792;SDS011;6460;42.684;23.260;2022-10-16T08:00:50;17.97;;;12.30;;
12792;SDS011;6460;42.684;23.260;2022-10-16T09:33:25;8.77;;;4.43;;
12792;SDS011;6460;42.684;23.260;2022-10-16T09:35:56;7.20;;;4.60;;
12792;SDS011;6460;42.684;23.260;2022-10-16T09:38:26;4.60;;;4.20;;
12792;SDS011;6460;42.684;23.260;2022-10-16T09:40:54;5.60;;;3.80;;
12792;SDS011;6460;42.684;23.260;2022-10-16T09:43:23;6.50;;;4.50;;
12792;SDS011;6460;42.684;23.260;2022-10-16T09:45:59;5.30;;;4.30;;
12792;SDS011;6460;42.684;23.260;2022-10-16T09:48:30;6.93;;;4.30;;
12792;SDS011;6460;42.684;23.260;2022-10-16T09:51:03;6.03;;;4.20;;
12792;SDS011;6460;42.684;23.260;2022-10-16T09:53:38;4.30;;;3.90;;
12792;SDS011;6460;42.684;23.260;2022-10-16T09:56:09;4.77;;;4.33;;
12792;SDS011;6460;42.684;23.260;2022-10-16T09:58:42;4.37;;;3.97;;
12792;SDS011;6460;42.684;23.260;2022-10-16T10:01:12;5.43;;;4.10;;
12792;SDS011;6460;42.684;23.260;2022-10-16T10:03:43;5.23;;;4.00;;
12792;SDS011;6460;42.684;23.260;2022-10-16T10:06:18;4.33;;;3.93;;
12792;SDS011;6460;42.684;23.260;2022-10-16T10:08:56;5.97;;;4.10;;
12792;SDS011;6460;42.684;23.260;2022-10-16T10:11:41;4.50;;;3.63;;
12792;SDS011;6460;42.684;23.260;2022-10-16T10:14:31;4.53;;;3.60;;
12792;SDS011;6460;42.684;23.260;2022-10-16T10:17:11;4.87;;;3.40;;
12792;SDS011;6460;42.684;23.260;2022-10-16T10:19:43;4.60;;;3.70;;
12792;SDS011;6460;42.684;23.260;2022-10-16T10:22:16;6.03;;;4.20;;
12792;SDS011;6460;42.684;23.260;2022-10-16T10:24:46;6.27;;;4.13;;
12792;SDS011;6460;42.684;23.260;2022-10-16T10:27:21;4.70;;;4.13;;
12792;SDS011;6460;42.684;23.260;2022-10-16T10:29:58;6.27;;;4.00;;
12792;SDS011;6460;42.684;23.260;2022-10-16T10:32:34;5.40;;;3.70;;
12792;SDS011;6460;42.684;23.260;2022-10-16T10:35:14;5.63;;;4.00;;
12792;SDS011;6460;42.684;23.260;2022-10-16T10:37:51;5.50;;;3.90;;
12792;SDS011;6460;42.684;23.260;2022-10-16T10:40:31;9.10;;;3.90;;
12792;SDS011;6460;42.684;23.260;2022-10-16T10:43:07;10.07;;;4.30;;
12792;SDS011;6460;42.684;23.260;2022-10-16T10:45:46;5.73;;;4.27;;
12792;SDS011;6460;42.684;23.260;2022-10-16T10:48:19;7.67;;;4.07;;
12792;SDS011;6460;42.684;23.260;2022-10-16T10:50:57;4.67;;;4.17;;
12792;SDS011;6460;42.684;23.260;2022-10-16T10:53:31;4.30;;;3.90;;
12792;SDS011;6460;42.684;23.260;2022-10-16T10:56:10;6.17;;;3.60;;
12792;SDS011;6460;42.684;23.260;2022-10-16T10:58:55;4.07;;;3.43;;
12792;SDS011;6460;42.684;23.260;2022-10-16T11:01:37;4.23;;;2.83;;
12792;SDS011;6460;42.684;23.260;2022-10-16T11:04:15;4.57;;;3.53;;
12792;SDS011;6460;42.684;23.260;2022-10-16T11:06:55;4.13;;;3.70;;
12792;SDS011;6460;42.684;23.260;2022-10-16T11:09:27;5.93;;;3.77;;
12792;SDS011;6460;42.684;23.260;2022-10-16T11:12:00;5.33;;;3.90;;
12792;SDS011;6460;42.684;23.260;2022-10-16T11:14:31;6.30;;;3.17;;
12792;SDS011;6460;42.684;23.260;2022-10-16T11:17:07;6.90;;;4.10;;
12792;SDS011;6460;42.684;23.260;2022-10-16T11:19:39;8.07;;;4.13;;
12792;SDS011;6460;42.684;23.260;2022-10-16T11:22:13;5.27;;;3.47;;
12792;SDS011;6460;42.684;23.260;2022-10-16T11:24:45;4.40;;;3.40;;
12792;SDS011;6460;42.684;23.260;2022-10-16T11:27:16;4.50;;;3.63;;
12792;SDS011;6460;42.684;23.260;2022-10-16T11:29:47;8.93;;;3.73;;
12792;SDS011;6460;42.684;23.260;2022-10-16T11:32:22;9.40;;;3.93;;
12792;SDS011;6460;42.684;23.260;2022-10-16T11:34:55;4.07;;;3.40;;
12792;SDS011;6460;42.684;23.260;2022-10-16T11:37:29;5.17;;;3.73;;
12792;SDS011;6460;42.684;23.260;2022-10-16T11:40:05;5.83;;;3.60;;
12792;SDS011;6460;42.684;23.260;2022-10-16T11:42:46;11.93;;;4.40;;
12792;SDS011;6460;42.684;23.260;2022-10-16T11:45:23;9.80;;;4.17;;
12792;SDS011;6460;42.684;23.260;2022-10-16T11:47:58;4.13;;;3.63;;
12792;SDS011;6460;42.684;23.260;2022-10-16T11:50:31;3.63;;;3.33;;
12792;SDS011;6460;42.684;23.260;2022-10-16T11:53:04;5.60;;;3.23;;
12792;SDS011;6460;42.684;23.260;2022-10-16T11:55:41;3.67;;;3.07;;
12792;SDS011;6460;42.684;23.260;2022-10-16T11:58:13;3.47;;;3.10;;
12792;SDS011;6460;42.684;23.260;2022-10-16T12:00:51;4.97;;;3.30;;
12792;SDS011;6460;42.684;23.260;2022-10-16T12:03:26;14.27;;;3.80;;
12792;SDS011;6460;42.684;23.260;2022-10-16T12:06:06;4.80;;;3.63;;
12792;SDS011;6460;42.684;23.260;2022-10-16T12:08:45;3.60;;;3.20;;
12792;SDS011;6460;42.684;23.260;2022-10-16T12:11:22;5.93;;;3.90;;
12792;SDS011;6460;42.684;23.260;2022-10-16T12:14:03;4.30;;;3.90;;
12792;SDS011;6460;42.684;23.260;2022-10-16T12:16:32;3.60;;;2.90;;
12792;SDS011;6460;42.684;23.260;2022-10-16T12:19:07;4.27;;;3.03;;
12792;SDS011;6460;42.684;23.260;2022-10-16T12:21:37;4.67;;;3.87;;
12792;SDS011;6460;42.684;23.260;2022-10-16T12:24:06;6.57;;;3.30;;
12792;SDS011;6460;42.684;23.260;2022-10-16T12:26:48;5.33;;;3.37;;
12792;SDS011;6460;42.684;23.260;2022-10-16T12:29:21;3.40;;;3.10;;
12792;SDS011;6460;42.684;23.260;2022-10-16T12:31:54;3.70;;;3.27;;
12792;SDS011;6460;42.684;23.260;2022-10-16T12:34:22;5.40;;;3.60;;
12792;SDS011;6460;42.684;23.260;2022-10-16T12:36:53;4.00;;;3.60;;
12792;SDS011;6460;42.684;23.260;2022-10-16T12:39:23;4.10;;;3.70;;
12792;SDS011;6460;42.684;23.260;2022-10-16T12:42:00;7.83;;;3.60;;
12792;SDS011;6460;42.684;23.260;2022-10-16T12:44:32;3.70;;;3.07;;
12792;SDS011;6460;42.684;23.260;2022-10-16T12:47:00;6.67;;;3.40;;
12792;SDS011;6460;42.684;23.260;2022-10-16T12:49:31;4.20;;;3.20;;
12792;SDS011;6460;42.684;23.260;2022-10-16T12:52:03;4.40;;;2.90;;
12792;SDS011;6460;42.684;23.260;2022-10-16T12:54:31;7.00;;;3.17;;
12792;SDS011;6460;42.684;23.260;2022-10-16T12:57:12;5.47;;;3.10;;
12792;SDS011;6460;42.684;23.260;2022-10-16T12:59:53;5.23;;;3.40;;
12792;SDS011;6460;42.684;23.260;2022-10-16T13:05:31;4.50;;;3.40;;
12792;SDS011;6460;42.684;23.260;2022-10-16T13:08:14;3.73;;;3.27;;
12792;SDS011;6460;42.684;23.260;2022-10-16T13:11:02;5.97;;;3.60;;
12792;SDS011;6460;42.684;23.260;2022-10-16T13:13:45;10.20;;;3.80;;
12792;SDS011;6460;42.684;23.260;2022-10-16T13:16:27;3.80;;;3.50;;
12792;SDS011;6460;42.684;23.260;2022-10-16T13:19:04;4.20;;;3.80;;
12792;SDS011;6460;42.684;23.260;2022-10-16T13:21:42;5.33;;;3.60;;
12792;SDS011;6460;42.684;23.260;2022-10-16T13:24:19;3.87;;;3.20;;
12792;SDS011;6460;42.684;23.260;2022-10-16T13:26:59;3.53;;;3.20;;
12792;SDS011;6460;42.684;23.260;2022-10-16T13:29:34;4.03;;;3.60;;
12792;SDS011;6460;42.684;23.260;2022-10-16T13:32:06;6.23;;;3.70;;
12792;SDS011;6460;42.684;23.260;2022-10-16T13:34:41;4.90;;;3.60;;
12792;SDS011;6460;42.684;23.260;2022-10-16T13:37:16;4.77;;;3.37;;
12792;SDS011;6460;42.684;23.260;2022-10-16T13:39:45;3.83;;;2.77;;
12792;SDS011;6460;42.684;23.260;2022-10-16T13:42:15;3.40;;;3.10;;
12792;SDS011;6460;42.684;23.260;2022-10-16T13:44:49;14.57;;;3.87;;
12792;SDS011;6460;42.684;23.260;2022-10-16T13:47:18;6.17;;;3.70;;
12792;SDS011;6460;42.684;23.260;2022-10-16T13:49:58;6.13;;;3.33;;
12792;SDS011;6460;42.684;23.260;2022-10-16T13:52:25;5.57;;;3.20;;
12792;SDS011;6460;42.684;23.260;2022-10-16T13:54:52;5.50;;;3.07;;
12792;SDS011;6460;42.684;23.260;2022-10-16T13:57:23;3.63;;;3.23;;
12792;SDS011;6460;42.684;23.260;2022-10-16T13:59:51;4.10;;;3.40;;
12792;SDS011;6460;42.684;23.260;2022-10-16T14:02:21;5.77;;;3.50;;
12792;SDS011;6460;42.684;23.260;2022-10-16T14:04:51;5.67;;;4.77;;
12792;SDS011;6460;42.684;23.260;2022-10-16T14:07:22;4.63;;;4.20;;
12792;SDS011;6460;42.684;23.260;2022-10-16T14:09:51;3.77;;;3.37;;
12792;SDS011;6460;42.684;23.260;2022-10-16T14:12:19;5.43;;;3.50;;
12792;SDS011;6460;42.684;23.260;2022-10-16T14:14:49;9.17;;;3.30;;
12792;SDS011;6460;42.684;23.260;2022-10-16T14:17:22;6.17;;;3.63;;
12792;SDS011;6460;42.684;23.260;2022-10-16T14:19:52;7.77;;;3.73;;
12792;SDS011;6460;42.684;23.260;2022-10-16T14:22:24;11.87;;;4.50;;
12792;SDS011;6460;42.684;23.260;2022-10-16T14:24:56;7.97;;;4.40;;
12792;SDS011;6460;42.684;23.260;2022-10-16T14:27:24;7.47;;;3.07;;
12792;SDS011;6460;42.684;23.260;2022-10-16T14:30:09;4.43;;;2.73;;
12792;SDS011;6460;42.684;23.260;2022-10-16T14:32:42;3.87;;;2.83;;
12792;SDS011;6460;42.684;23.260;2022-10-16T14:35:28;3.77;;;2.70;;
12792;SDS011;6460;42.684;23.260;2022-10-16T14:37:58;3.87;;;3.27;;
12792;SDS011;6460;42.684;23.260;2022-10-16T14:40:29;4.20;;;3.80;;
12792;SDS011;6460;42.684;23.260;2022-10-16T14:42:58;6.23;;;3.27;;
12792;SDS011;6460;42.684;23.260;2022-10-16T14:45:28;3.67;;;2.93;;
12792;SDS011;6460;42.684;23.260;2022-10-16T14:47:58;4.20;;;3.60;;
12792;SDS011;6460;42.684;23.260;2022-10-16T14:50:29;4.33;;;3.40;;
12792;SDS011;6460;42.684;23.260;2022-10-16T14:52:56;6.23;;;4.27;;
12792;SDS011;6460;42.684;23.260;2022-10-16T14:55:24;6.07;;;3.60;;
12792;SDS011;6460;42.684;23.260;2022-10-16T14:57:52;4.43;;;3.07;;
12792;SDS011;6460;42.684;23.260;2022-10-16T15:00:20;6.00;;;3.00;;
12792;SDS011;6460;42.684;23.260;2022-10-16T15:02:51;4.10;;;2.83;;
12792;SDS011;6460;42.684;23.260;2022-10-16T15:05:19;6.33;;;3.27;;
12792;SDS011;6460;42.684;23.260;2022-10-16T15:07:47;3.93;;;3.53;;
12792;SDS011;6460;42.684;23.260;2022-10-16T15:10:15;4.60;;;3.20;;
12792;SDS011;6460;42.684;23.260;2022-10-16T15:12:43;5.93;;;3.33;;
12792;SDS011;6460;42.684;23.260;2022-10-16T15:15:25;13.70;;;3.77;;
12792;SDS011;6460;42.684;23.260;2022-10-16T15:17:58;8.53;;;3.80;;
12792;SDS011;6460;42.684;23.260;2022-10-16T15:20:27;8.70;;;4.03;;
12792;SDS011;6460;42.684;23.260;2022-10-16T15:22:58;5.57;;;3.37;;
12792;SDS011;6460;42.684;23.260;2022-10-16T15:25:33;8.37;;;4.00;;
12792;SDS011;6460;42.684;23.260;2022-10-16T15:28:04;7.80;;;3.33;;
12792;SDS011;6460;42.684;23.260;2022-10-16T15:30:33;8.10;;;3.40;;
12792;SDS011;6460;42.684;23.260;2022-10-16T15:33:02;14.83;;;3.63;;
12792;SDS011;6460;42.684;23.260;2022-10-16T15:35:30;7.33;;;3.77;;
12792;SDS011;6460;42.684;23.260;2022-10-16T15:37:58;4.17;;;3.50;;
12792;SDS011;6460;42.684;23.260;2022-10-16T15:40:25;5.33;;;3.50;;
12792;SDS011;6460;42.684;23.260;2022-10-16T15:42:52;13.93;;;4.30;;
12792;SDS011;6460;42.684;23.260;2022-10-16T15:45:20;10.40;;;3.63;;
12792;SDS011;6460;42.684;23.260;2022-10-16T15:47:47;8.17;;;4.20;;
12792;SDS011;6460;42.684;23.260;2022-10-16T15:50:16;4.73;;;3.43;;
12792;SDS011;6460;42.684;23.260;2022-10-16T15:52:43;4.07;;;3.20;;
12792;SDS011;6460;42.684;23.260;2022-10-16T15:55:12;6.50;;;3.83;;
12792;SDS011;6460;42.684;23.260;2022-10-16T15:57:40;8.53;;;3.93;;
12792;SDS011;6460;42.684;23.260;2022-10-16T16:00:09;7.20;;;3.80;;
12792;SDS011;6460;42.684;23.260;2022-10-16T16:02:38;8.40;;;4.70;;
12792;SDS011;6460;42.684;23.260;2022-10-16T16:05:06;8.17;;;4.73;;
12792;SDS011;6460;42.684;23.260;2022-10-16T16:07:36;9.57;;;4.70;;
12792;SDS011;6460;42.684;23.260;2022-10-16T16:10:05;8.63;;;4.77;;
12792;SDS011;6460;42.684;23.260;2022-10-16T16:12:34;7.77;;;4.77;;
12792;SDS011;6460;42.684;23.260;2022-10-16T16:15:02;5.27;;;4.37;;
12792;SDS011;6460;42.684;23.260;2022-10-16T16:17:30;10.03;;;8.33;;
12792;SDS011;6460;42.684;23.260;2022-10-16T16:19:57;11.80;;;7.50;;
12792;SDS011;6460;42.684;23.260;2022-10-16T16:22:24;8.30;;;6.30;;
12792;SDS011;6460;42.684;23.260;2022-10-16T16:24:53;7.67;;;5.30;;
12792;SDS011;6460;42.684;23.260;2022-10-16T16:27:20;8.57;;;4.97;;
12792;SDS011;6460;42.684;23.260;2022-10-16T16:29:49;6.53;;;4.63;;
12792;SDS011;6460;42.684;23.260;2022-10-16T16:32:16;7.10;;;5.20;;
12792;SDS011;6460;42.684;23.260;2022-10-16T16:34:44;8.00;;;4.63;;
12792;SDS011;6460;42.684;23.260;2022-10-16T16:37:11;7.67;;;4.87;;
12792;SDS011;6460;42.684;23.260;2022-10-16T16:39:38;6.33;;;5.30;;
12792;SDS011;6460;42.684;23.260;2022-10-16T16:42:07;7.00;;;5.00;;
12792;SDS011;6460;42.684;23.260;2022-10-16T16:44:35;6.73;;;5.03;;
12792;SDS011;6460;42.684;23.260;2022-10-16T16:47:02;5.77;;;5.27;;
12792;SDS011;6460;42.684;23.260;2022-10-16T16:49:30;8.50;;;5.37;;
12792;SDS011;6460;42.684;23.260;2022-10-16T16:51:57;6.60;;;5.50;;
12792;SDS011;6460;42.684;23.260;2022-10-16T16:54:25;6.53;;;5.00;;
12792;SDS011;6460;42.684;23.260;2022-10-16T16:56:52;10.70;;;4.90;;
12792;SDS011;6460;42.684;23.260;2022-10-16T16:59:21;8.03;;;5.17;;
12792;SDS011;6460;42.684;23.260;2022-10-16T17:01:49;8.80;;;5.50;;
12792;SDS011;6460;42.684;23.260;2022-10-16T17:04:16;6.70;;;5.53;;
12792;SDS011;6460;42.684;23.260;2022-10-16T17:06:44;9.77;;;5.77;;
12792;SDS011;6460;42.684;23.260;2022-10-16T17:09:12;10.27;;;6.20;;
12792;SDS011;6460;42.684;23.260;2022-10-16T17:11:40;11.00;;;6.57;;
12792;SDS011;6460;42.684;23.260;2022-10-16T17:14:09;11.50;;;7.77;;
12792;SDS011;6460;42.684;23.260;2022-10-16T17:16:38;13.57;;;9.13;;
12792;SDS011;6460;42.684;23.260;2022-10-16T17:19:10;12.40;;;9.80;;
12792;SDS011;6460;42.684;23.260;2022-10-16T17:21:39;16.27;;;10.60;;
12792;SDS011;6460;42.684;23.260;2022-10-16T17:24:07;16.30;;;10.07;;
12792;SDS011;6460;42.684;23.260;2022-10-16T17:26:35;14.33;;;10.17;;
12792;SDS011;6460;42.684;23.260;2022-10-16T17:29:05;15.77;;;10.83;;
12792;SDS011;6460;42.684;23.260;2022-10-16T17:31:34;16.73;;;11.30;;